sensor_id;sensor_type;location;lat;lon;timestamp;P1;durP1;ratioP1;P2;durP2;ratioP2
51292;SDS011;37377;45.186;9.778;2023-10-19T00:01:03;62.03;;;39.17;;
51292;SDS011;37377;45.186;9.778;2023-10-19T00:03:36;69.28;;;41.15;;
51292;SDS011;37377;45.186;9.778;2023-10-19T00:06:03;62.63;;;40.00;;
51292;SDS011;37377;45.186;9.778;2023-10-19T00:08:32;69.78;;;41.92;;
51292;SDS011;37377;45.186;9.778;2023-10-19T00:11:10;65.40;;;42.08;;
51292;SDS011;37377;45.186;9.778;2023-10-19T00:13:50;68.60;;;41.80;;
51292;SDS011;37377;45.186;9.778;2023-10-19T00:16:28;62.53;;;42.47;;
51292;SDS011;37377;45.186;9.778;2023-10-19T00:18:58;65.30;;;41.70;;
51292;SDS011;37377;45.186;9.778;2023-10-19T00:21:36;62.47;;;42.53;;
51292;SDS011;37377;45.186;9.778;2023-10-19T00:24:21;67.97;;;41.45;;
51292;SDS011;37377;45.186;9.778;2023-10-19T00:26:51;65.68;;;41.47;;
51292;SDS011;37377;45.186;9.778;2023-10-19T00:29:21;67.60;;;43.35;;
51292;SDS011;37377;45.186;9.778;2023-10-19T00:31:58;63.13;;;42.22;;
51292;SDS011;37377;45.186;9.778;2023-10-19T00:34:31;64.30;;;42.22;;
51292;SDS011;37377;45.186;9.778;2023-10-19T00:36:59;64.03;;;41.92;;
51292;SDS011;37377;45.186;9.778;2023-10-19T00:39:36;63.83;;;41.03;;
51292;SDS011;37377;45.186;9.778;2023-10-19T00:42:26;66.15;;;43.78;;
51292;SDS011;37377;45.186;9.778;2023-10-19T00:44:58;67.95;;;44.78;;
51292;SDS011;37377;45.186;9.778;2023-10-19T00:47:37;61.42;;;43.00;;
51292;SDS011;37377;45.186;9.778;2023-10-19T00:50:24;59.15;;;43.05;;
51292;SDS011;37377;45.186;9.778;2023-10-19T00:52:59;63.63;;;43.35;;
51292;SDS011;37377;45.186;9.778;2023-10-19T00:55:35;68.30;;;44.42;;
51292;SDS011;37377;45.186;9.778;2023-10-19T00:58:10;66.23;;;44.53;;
51292;SDS011;37377;45.186;9.778;2023-10-19T01:00:44;70.38;;;44.13;;
51292;SDS011;37377;45.186;9.778;2023-10-19T01:03:12;65.13;;;42.90;;
51292;SDS011;37377;45.186;9.778;2023-10-19T01:05:44;71.38;;;45.03;;
51292;SDS011;37377;45.186;9.778;2023-10-19T01:08:17;63.83;;;43.80;;
51292;SDS011;37377;45.186;9.778;2023-10-19T01:11:01;64.60;;;43.22;;
51292;SDS011;37377;45.186;9.778;2023-10-19T01:13:31;67.85;;;44.45;;
51292;SDS011;37377;45.186;9.778;2023-10-19T01:16:01;67.95;;;45.63;;
51292;SDS011;37377;45.186;9.778;2023-10-19T01:18:48;71.95;;;44.78;;
51292;SDS011;37377;45.186;9.778;2023-10-19T01:21:22;64.05;;;43.33;;
51292;SDS011;37377;45.186;9.778;2023-10-19T01:24:06;60.85;;;41.55;;
51292;SDS011;37377;45.186;9.778;2023-10-19T01:26:35;67.55;;;43.90;;
51292;SDS011;37377;45.186;9.778;2023-10-19T01:29:04;60.10;;;43.42;;
51292;SDS011;37377;45.186;9.778;2023-10-19T01:31:48;59.55;;;44.08;;
51292;SDS011;37377;45.186;9.778;2023-10-19T01:34:26;64.07;;;44.67;;
51292;SDS011;37377;45.186;9.778;2023-10-19T01:37:19;63.40;;;44.15;;
51292;SDS011;37377;45.186;9.778;2023-10-19T01:39:46;61.53;;;43.03;;
51292;SDS011;37377;45.186;9.778;2023-10-19T01:42:16;60.90;;;43.83;;
51292;SDS011;37377;45.186;9.778;2023-10-19T01:44:46;65.47;;;43.67;;
51292;SDS011;37377;45.186;9.778;2023-10-19T01:47:13;74.95;;;48.63;;
51292;SDS011;37377;45.186;9.778;2023-10-19T01:49:43;65.65;;;44.92;;
51292;SDS011;37377;45.186;9.778;2023-10-19T01:52:12;64.13;;;45.20;;
51292;SDS011;37377;45.186;9.778;2023-10-19T01:54:46;71.05;;;46.70;;
51292;SDS011;37377;45.186;9.778;2023-10-19T01:57:13;72.72;;;45.60;;
51292;SDS011;37377;45.186;9.778;2023-10-19T01:59:46;72.85;;;47.00;;
51292;SDS011;37377;45.186;9.778;2023-10-19T02:02:16;66.88;;;45.33;;
51292;SDS011;37377;45.186;9.778;2023-10-19T02:04:49;61.90;;;44.58;;
51292;SDS011;37377;45.186;9.778;2023-10-19T02:07:20;69.45;;;46.50;;
51292;SDS011;37377;45.186;9.778;2023-10-19T02:09:48;56.30;;;44.30;;
51292;SDS011;37377;45.186;9.778;2023-10-19T02:12:15;60.75;;;44.10;;
51292;SDS011;37377;45.186;9.778;2023-10-19T02:14:44;59.95;;;43.67;;
51292;SDS011;37377;45.186;9.778;2023-10-19T02:17:12;62.22;;;43.65;;
51292;SDS011;37377;45.186;9.778;2023-10-19T02:19:46;62.40;;;44.67;;
51292;SDS011;37377;45.186;9.778;2023-10-19T02:22:18;59.75;;;43.70;;
51292;SDS011;37377;45.186;9.778;2023-10-19T02:24:47;64.13;;;44.25;;
51292;SDS011;37377;45.186;9.778;2023-10-19T02:27:14;66.07;;;46.58;;
51292;SDS011;37377;45.186;9.778;2023-10-19T02:30:00;59.33;;;44.20;;
51292;SDS011;37377;45.186;9.778;2023-10-19T02:32:28;62.30;;;44.65;;
51292;SDS011;37377;45.186;9.778;2023-10-19T02:35:00;60.33;;;44.47;;
51292;SDS011;37377;45.186;9.778;2023-10-19T02:37:28;60.92;;;44.28;;
51292;SDS011;37377;45.186;9.778;2023-10-19T02:39:56;67.38;;;47.25;;
51292;SDS011;37377;45.186;9.778;2023-10-19T02:42:23;59.22;;;43.83;;
51292;SDS011;37377;45.186;9.778;2023-10-19T02:44:50;64.20;;;44.42;;
51292;SDS011;37377;45.186;9.778;2023-10-19T02:47:17;65.50;;;45.85;;
51292;SDS011;37377;45.186;9.778;2023-10-19T02:49:45;66.55;;;44.40;;
51292;SDS011;37377;45.186;9.778;2023-10-19T02:52:21;64.07;;;46.08;;
51292;SDS011;37377;45.186;9.778;2023-10-19T02:54:49;67.22;;;46.33;;
51292;SDS011;37377;45.186;9.778;2023-10-19T02:57:16;65.15;;;45.25;;
51292;SDS011;37377;45.186;9.778;2023-10-19T02:59:43;65.55;;;45.63;;
51292;SDS011;37377;45.186;9.778;2023-10-19T03:02:14;67.55;;;46.67;;
51292;SDS011;37377;45.186;9.778;2023-10-19T03:04:41;60.53;;;45.63;;
51292;SDS011;37377;45.186;9.778;2023-10-19T03:07:11;60.25;;;44.28;;
51292;SDS011;37377;45.186;9.778;2023-10-19T03:09:39;60.47;;;45.75;;
51292;SDS011;37377;45.186;9.778;2023-10-19T03:12:06;55.35;;;43.58;;
51292;SDS011;37377;45.186;9.778;2023-10-19T03:14:40;59.20;;;43.35;;
51292;SDS011;37377;45.186;9.778;2023-10-19T03:17:13;61.80;;;42.83;;
51292;SDS011;37377;45.186;9.778;2023-10-19T03:19:40;60.25;;;45.42;;
51292;SDS011;37377;45.186;9.778;2023-10-19T03:22:09;62.55;;;44.72;;
51292;SDS011;37377;45.186;9.778;2023-10-19T03:24:38;64.97;;;44.78;;
51292;SDS011;37377;45.186;9.778;2023-10-19T03:27:10;62.15;;;45.45;;
51292;SDS011;37377;45.186;9.778;2023-10-19T03:29:51;66.72;;;45.28;;
51292;SDS011;37377;45.186;9.778;2023-10-19T03:32:23;64.55;;;46.13;;
51292;SDS011;37377;45.186;9.778;2023-10-19T03:34:55;63.28;;;45.92;;
51292;SDS011;37377;45.186;9.778;2023-10-19T03:37:24;69.95;;;46.35;;
51292;SDS011;37377;45.186;9.778;2023-10-19T03:39:56;68.15;;;47.38;;
51292;SDS011;37377;45.186;9.778;2023-10-19T03:42:24;66.57;;;45.80;;
51292;SDS011;37377;45.186;9.778;2023-10-19T03:44:59;68.28;;;47.88;;
51292;SDS011;37377;45.186;9.778;2023-10-19T03:47:32;63.05;;;46.65;;
51292;SDS011;37377;45.186;9.778;2023-10-19T03:50:03;66.65;;;46.65;;
51292;SDS011;37377;45.186;9.778;2023-10-19T03:52:35;67.10;;;48.00;;
51292;SDS011;37377;45.186;9.778;2023-10-19T03:55:06;72.78;;;49.60;;
51292;SDS011;37377;45.186;9.778;2023-10-19T03:57:38;75.83;;;50.30;;
51292;SDS011;37377;45.186;9.778;2023-10-19T04:00:14;66.53;;;48.05;;
51292;SDS011;37377;45.186;9.778;2023-10-19T04:02:52;68.22;;;48.47;;
51292;SDS011;37377;45.186;9.778;2023-10-19T04:05:20;70.78;;;49.35;;
51292;SDS011;37377;45.186;9.778;2023-10-19T04:07:49;70.55;;;48.65;;
51292;SDS011;37377;45.186;9.778;2023-10-19T04:10:21;69.40;;;49.75;;
51292;SDS011;37377;45.186;9.778;2023-10-19T04:13:01;72.45;;;50.22;;
51292;SDS011;37377;45.186;9.778;2023-10-19T04:15:29;70.72;;;50.50;;
51292;SDS011;37377;45.186;9.778;2023-10-19T04:18:00;68.40;;;50.30;;
51292;SDS011;37377;45.186;9.778;2023-10-19T04:20:27;75.10;;;52.35;;
51292;SDS011;37377;45.186;9.778;2023-10-19T04:22:54;69.95;;;49.97;;
51292;SDS011;37377;45.186;9.778;2023-10-19T04:25:23;66.30;;;49.13;;
51292;SDS011;37377;45.186;9.778;2023-10-19T04:27:53;70.85;;;50.05;;
51292;SDS011;37377;45.186;9.778;2023-10-19T04:30:21;69.82;;;48.60;;
51292;SDS011;37377;45.186;9.778;2023-10-19T04:32:50;77.75;;;51.40;;
51292;SDS011;37377;45.186;9.778;2023-10-19T04:35:18;74.82;;;49.80;;
51292;SDS011;37377;45.186;9.778;2023-10-19T04:37:49;75.85;;;53.42;;
51292;SDS011;37377;45.186;9.778;2023-10-19T04:40:19;80.28;;;55.35;;
51292;SDS011;37377;45.186;9.778;2023-10-19T04:42:47;70.35;;;52.65;;
51292;SDS011;37377;45.186;9.778;2023-10-19T04:45:14;67.70;;;50.58;;
51292;SDS011;37377;45.186;9.778;2023-10-19T04:47:44;76.95;;;53.53;;
51292;SDS011;37377;45.186;9.778;2023-10-19T04:50:13;73.22;;;52.55;;
51292;SDS011;37377;45.186;9.778;2023-10-19T04:52:41;73.10;;;52.88;;
51292;SDS011;37377;45.186;9.778;2023-10-19T04:55:08;75.25;;;54.58;;
51292;SDS011;37377;45.186;9.778;2023-10-19T04:57:35;72.38;;;54.13;;
51292;SDS011;37377;45.186;9.778;2023-10-19T05:00:02;79.90;;;54.15;;
51292;SDS011;37377;45.186;9.778;2023-10-19T05:02:30;76.07;;;53.95;;
51292;SDS011;37377;45.186;9.778;2023-10-19T05:04:58;74.57;;;55.78;;
51292;SDS011;37377;45.186;9.778;2023-10-19T05:07:25;82.47;;;57.13;;
51292;SDS011;37377;45.186;9.778;2023-10-19T05:09:53;77.75;;;54.88;;
51292;SDS011;37377;45.186;9.778;2023-10-19T05:12:20;71.13;;;52.90;;
51292;SDS011;37377;45.186;9.778;2023-10-19T05:14:48;73.60;;;53.38;;
51292;SDS011;37377;45.186;9.778;2023-10-19T05:17:15;81.47;;;56.67;;
51292;SDS011;37377;45.186;9.778;2023-10-19T05:19:42;83.90;;;57.30;;
51292;SDS011;37377;45.186;9.778;2023-10-19T05:22:09;83.07;;;55.47;;
51292;SDS011;37377;45.186;9.778;2023-10-19T05:24:36;81.13;;;53.78;;
51292;SDS011;37377;45.186;9.778;2023-10-19T05:27:04;76.10;;;53.88;;
51292;SDS011;37377;45.186;9.778;2023-10-19T05:29:33;69.00;;;52.60;;
51292;SDS011;37377;45.186;9.778;2023-10-19T05:32:00;77.63;;;54.53;;
51292;SDS011;37377;45.186;9.778;2023-10-19T05:34:29;77.55;;;53.85;;
51292;SDS011;37377;45.186;9.778;2023-10-19T05:36:58;84.47;;;56.50;;
51292;SDS011;37377;45.186;9.778;2023-10-19T05:39:32;79.82;;;55.95;;
51292;SDS011;37377;45.186;9.778;2023-10-19T05:42:00;86.43;;;55.63;;
51292;SDS011;37377;45.186;9.778;2023-10-19T05:44:28;77.70;;;54.85;;
51292;SDS011;37377;45.186;9.778;2023-10-19T05:46:59;87.93;;;55.88;;
51292;SDS011;37377;45.186;9.778;2023-10-19T05:49:27;83.28;;;57.38;;
51292;SDS011;37377;45.186;9.778;2023-10-19T05:51:57;78.35;;;54.72;;
51292;SDS011;37377;45.186;9.778;2023-10-19T05:54:25;85.72;;;60.38;;
51292;SDS011;37377;45.186;9.778;2023-10-19T05:56:53;84.80;;;57.53;;
51292;SDS011;37377;45.186;9.778;2023-10-19T05:59:21;85.20;;;58.63;;
51292;SDS011;37377;45.186;9.778;2023-10-19T06:01:50;84.90;;;59.25;;
51292;SDS011;37377;45.186;9.778;2023-10-19T06:04:18;84.03;;;60.22;;
51292;SDS011;37377;45.186;9.778;2023-10-19T06:06:47;81.47;;;59.63;;
51292;SDS011;37377;45.186;9.778;2023-10-19T06:09:15;79.30;;;57.05;;
51292;SDS011;37377;45.186;9.778;2023-10-19T06:11:44;87.15;;;60.47;;
51292;SDS011;37377;45.186;9.778;2023-10-19T06:14:12;85.10;;;60.42;;
51292;SDS011;37377;45.186;9.778;2023-10-19T06:16:39;82.53;;;60.20;;
51292;SDS011;37377;45.186;9.778;2023-10-19T06:19:06;86.18;;;58.35;;
51292;SDS011;37377;45.186;9.778;2023-10-19T06:21:33;77.78;;;57.22;;
51292;SDS011;37377;45.186;9.778;2023-10-19T06:24:00;83.13;;;59.05;;
51292;SDS011;37377;45.186;9.778;2023-10-19T06:26:30;74.28;;;54.70;;
51292;SDS011;37377;45.186;9.778;2023-10-19T06:28:57;74.47;;;54.55;;
51292;SDS011;37377;45.186;9.778;2023-10-19T06:31:28;77.68;;;58.00;;
51292;SDS011;37377;45.186;9.778;2023-10-19T06:33:56;75.95;;;57.63;;
51292;SDS011;37377;45.186;9.778;2023-10-19T06:36:24;68.68;;;53.45;;
51292;SDS011;37377;45.186;9.778;2023-10-19T06:38:51;68.05;;;54.53;;
51292;SDS011;37377;45.186;9.778;2023-10-19T06:41:20;67.85;;;51.80;;
51292;SDS011;37377;45.186;9.778;2023-10-19T06:43:49;71.28;;;55.80;;
51292;SDS011;37377;45.186;9.778;2023-10-19T06:46:17;77.15;;;57.83;;
51292;SDS011;37377;45.186;9.778;2023-10-19T06:48:44;64.88;;;53.08;;
51292;SDS011;37377;45.186;9.778;2023-10-19T06:51:11;68.18;;;52.40;;
51292;SDS011;37377;45.186;9.778;2023-10-19T06:53:38;67.40;;;54.63;;
51292;SDS011;37377;45.186;9.778;2023-10-19T06:56:06;63.72;;;51.35;;
51292;SDS011;37377;45.186;9.778;2023-10-19T06:58:34;70.88;;;54.28;;
51292;SDS011;37377;45.186;9.778;2023-10-19T07:01:01;74.70;;;56.92;;
51292;SDS011;37377;45.186;9.778;2023-10-19T07:03:37;76.47;;;59.05;;
51292;SDS011;37377;45.186;9.778;2023-10-19T07:06:04;67.93;;;53.75;;
51292;SDS011;37377;45.186;9.778;2023-10-19T07:08:39;71.68;;;54.53;;
51292;SDS011;37377;45.186;9.778;2023-10-19T07:11:07;70.30;;;55.20;;
51292;SDS011;37377;45.186;9.778;2023-10-19T07:13:36;73.40;;;55.40;;
51292;SDS011;37377;45.186;9.778;2023-10-19T07:16:03;73.22;;;54.55;;
51292;SDS011;37377;45.186;9.778;2023-10-19T07:18:31;72.28;;;55.17;;
51292;SDS011;37377;45.186;9.778;2023-10-19T07:20:58;73.85;;;56.33;;
51292;SDS011;37377;45.186;9.778;2023-10-19T07:23:32;73.68;;;55.40;;
51292;SDS011;37377;45.186;9.778;2023-10-19T07:25:59;79.88;;;58.80;;
51292;SDS011;37377;45.186;9.778;2023-10-19T07:28:29;75.13;;;57.25;;
51292;SDS011;37377;45.186;9.778;2023-10-19T07:30:57;75.63;;;56.70;;
51292;SDS011;37377;45.186;9.778;2023-10-19T07:33:26;81.60;;;59.15;;
51292;SDS011;37377;45.186;9.778;2023-10-19T07:35:54;87.30;;;62.53;;
51292;SDS011;37377;45.186;9.778;2023-10-19T07:38:22;82.82;;;60.70;;
51292;SDS011;37377;45.186;9.778;2023-10-19T07:44:48;80.88;;;61.20;;
51292;SDS011;37377;45.186;9.778;2023-10-19T07:47:15;79.03;;;60.05;;
51292;SDS011;37377;45.186;9.778;2023-10-19T07:49:43;68.22;;;54.75;;
51292;SDS011;37377;45.186;9.778;2023-10-19T07:52:10;67.97;;;53.50;;
51292;SDS011;37377;45.186;9.778;2023-10-19T07:54:37;64.82;;;52.78;;
51292;SDS011;37377;45.186;9.778;2023-10-19T07:57:05;63.55;;;52.42;;
51292;SDS011;37377;45.186;9.778;2023-10-19T07:59:33;65.22;;;51.63;;
51292;SDS011;37377;45.186;9.778;2023-10-19T08:02:00;61.95;;;50.13;;
51292;SDS011;37377;45.186;9.778;2023-10-19T08:04:31;63.85;;;50.78;;
51292;SDS011;37377;45.186;9.778;2023-10-19T08:06:58;69.25;;;57.38;;
51292;SDS011;37377;45.186;9.778;2023-10-19T08:09:25;85.80;;;67.85;;
51292;SDS011;37377;45.186;9.778;2023-10-19T08:11:58;79.57;;;66.00;;
51292;SDS011;37377;45.186;9.778;2023-10-19T08:14:28;59.22;;;50.47;;
51292;SDS011;37377;45.186;9.778;2023-10-19T08:17:07;56.35;;;48.03;;
51292;SDS011;37377;45.186;9.778;2023-10-19T08:19:39;57.53;;;47.50;;
51292;SDS011;37377;45.186;9.778;2023-10-19T08:22:07;61.45;;;51.13;;
51292;SDS011;37377;45.186;9.778;2023-10-19T08:24:35;54.75;;;46.30;;
51292;SDS011;37377;45.186;9.778;2023-10-19T08:27:02;58.13;;;46.83;;
51292;SDS011;37377;45.186;9.778;2023-10-19T08:29:32;53.63;;;45.47;;
51292;SDS011;37377;45.186;9.778;2023-10-19T08:32:00;54.80;;;46.65;;
51292;SDS011;37377;45.186;9.778;2023-10-19T08:34:47;49.75;;;43.88;;
51292;SDS011;37377;45.186;9.778;2023-10-19T08:37:23;47.78;;;41.45;;
51292;SDS011;37377;45.186;9.778;2023-10-19T08:39:50;44.70;;;39.90;;
51292;SDS011;37377;45.186;9.778;2023-10-19T08:42:17;44.92;;;40.03;;
51292;SDS011;37377;45.186;9.778;2023-10-19T08:44:44;40.97;;;36.65;;
51292;SDS011;37377;45.186;9.778;2023-10-19T08:47:11;39.92;;;36.00;;
51292;SDS011;37377;45.186;9.778;2023-10-19T08:49:39;43.63;;;39.20;;
51292;SDS011;37377;45.186;9.778;2023-10-19T08:52:06;39.13;;;35.08;;
51292;SDS011;37377;45.186;9.778;2023-10-19T08:54:33;40.83;;;34.65;;
51292;SDS011;37377;45.186;9.778;2023-10-19T08:57:03;32.85;;;29.70;;
51292;SDS011;37377;45.186;9.778;2023-10-19T08:59:31;33.67;;;30.42;;
51292;SDS011;37377;45.186;9.778;2023-10-19T09:02:01;35.35;;;31.60;;
51292;SDS011;37377;45.186;9.778;2023-10-19T09:04:29;39.05;;;34.20;;
51292;SDS011;37377;45.186;9.778;2023-10-19T09:06:57;30.80;;;27.80;;
51292;SDS011;37377;45.186;9.778;2023-10-19T09:09:24;31.30;;;28.27;;
51292;SDS011;37377;45.186;9.778;2023-10-19T09:11:55;32.42;;;29.33;;
51292;SDS011;37377;45.186;9.778;2023-10-19T09:14:32;31.70;;;28.42;;
51292;SDS011;37377;45.186;9.778;2023-10-19T09:17:00;32.15;;;28.98;;
51292;SDS011;37377;45.186;9.778;2023-10-19T09:20:11;34.40;;;30.90;;
51292;SDS011;37377;45.186;9.778;2023-10-19T09:22:37;35.13;;;31.35;;
51292;SDS011;37377;45.186;9.778;2023-10-19T09:26:04;35.08;;;31.40;;
51292;SDS011;37377;45.186;9.778;2023-10-19T09:28:36;35.47;;;31.98;;
51292;SDS011;37377;45.186;9.778;2023-10-19T09:31:05;32.05;;;28.90;;
51292;SDS011;37377;45.186;9.778;2023-10-19T09:33:40;33.15;;;29.98;;
51292;SDS011;37377;45.186;9.778;2023-10-19T09:36:11;31.85;;;28.58;;
51292;SDS011;37377;45.186;9.778;2023-10-19T09:41:40;29.20;;;26.60;;
51292;SDS011;37377;45.186;9.778;2023-10-19T09:44:07;30.08;;;27.13;;
51292;SDS011;37377;45.186;9.778;2023-10-19T09:46:39;33.17;;;29.67;;
51292;SDS011;37377;45.186;9.778;2023-10-19T09:49:07;47.28;;;37.80;;
51292;SDS011;37377;45.186;9.778;2023-10-19T09:51:38;47.30;;;41.15;;
51292;SDS011;37377;45.186;9.778;2023-10-19T09:54:26;29.77;;;27.00;;
51292;SDS011;37377;45.186;9.778;2023-10-19T09:56:57;31.65;;;28.80;;
51292;SDS011;37377;45.186;9.778;2023-10-19T09:59:37;33.25;;;29.88;;
51292;SDS011;37377;45.186;9.778;2023-10-19T10:02:09;34.08;;;30.73;;
51292;SDS011;37377;45.186;9.778;2023-10-19T10:04:41;32.58;;;29.42;;
51292;SDS011;37377;45.186;9.778;2023-10-19T10:07:11;34.15;;;30.65;;
51292;SDS011;37377;45.186;9.778;2023-10-19T10:09:41;33.47;;;30.27;;
51292;SDS011;37377;45.186;9.778;2023-10-19T10:12:24;34.55;;;30.95;;
51292;SDS011;37377;45.186;9.778;2023-10-19T10:15:00;32.88;;;29.50;;
51292;SDS011;37377;45.186;9.778;2023-10-19T10:17:38;32.42;;;29.10;;
51292;SDS011;37377;45.186;9.778;2023-10-19T10:22:45;35.08;;;31.42;;
51292;SDS011;37377;45.186;9.778;2023-10-19T10:25:49;36.00;;;31.80;;
51292;SDS011;37377;45.186;9.778;2023-10-19T10:28:16;37.10;;;32.63;;
51292;SDS011;37377;45.186;9.778;2023-10-19T10:33:53;36.85;;;33.15;;
51292;SDS011;37377;45.186;9.778;2023-10-19T10:36:23;35.08;;;31.52;;
51292;SDS011;37377;45.186;9.778;2023-10-19T10:38:50;33.15;;;29.77;;
51292;SDS011;37377;45.186;9.778;2023-10-19T10:41:21;31.67;;;28.25;;
51292;SDS011;37377;45.186;9.778;2023-10-19T10:43:50;32.35;;;29.08;;
51292;SDS011;37377;45.186;9.778;2023-10-19T10:46:20;27.67;;;24.95;;
51292;SDS011;37377;45.186;9.778;2023-10-19T10:48:51;22.00;;;19.98;;
51292;SDS011;37377;45.186;9.778;2023-10-19T10:51:19;23.38;;;21.27;;
51292;SDS011;37377;45.186;9.778;2023-10-19T10:53:53;24.17;;;21.65;;
51292;SDS011;37377;45.186;9.778;2023-10-19T10:56:21;21.63;;;19.85;;
51292;SDS011;37377;45.186;9.778;2023-10-19T10:58:50;30.15;;;20.73;;
51292;SDS011;37377;45.186;9.778;2023-10-19T11:01:28;21.27;;;19.50;;
51292;SDS011;37377;45.186;9.778;2023-10-19T11:04:06;21.80;;;20.02;;
51292;SDS011;37377;45.186;9.778;2023-10-19T11:06:45;23.23;;;21.13;;
51292;SDS011;37377;45.186;9.778;2023-10-19T11:09:16;22.98;;;20.77;;
51292;SDS011;37377;45.186;9.778;2023-10-19T11:11:48;22.20;;;20.25;;
51292;SDS011;37377;45.186;9.778;2023-10-19T11:14:21;25.17;;;22.50;;
51292;SDS011;37377;45.186;9.778;2023-10-19T11:16:52;24.88;;;22.45;;
51292;SDS011;37377;45.186;9.778;2023-10-19T11:19:19;25.25;;;22.63;;
51292;SDS011;37377;45.186;9.778;2023-10-19T11:21:54;24.15;;;21.95;;
51292;SDS011;37377;45.186;9.778;2023-10-19T11:24:26;23.05;;;20.83;;
51292;SDS011;37377;45.186;9.778;2023-10-19T11:26:57;22.88;;;20.85;;
51292;SDS011;37377;45.186;9.778;2023-10-19T11:29:24;23.67;;;21.38;;
51292;SDS011;37377;45.186;9.778;2023-10-19T11:31:58;24.58;;;22.38;;
51292;SDS011;37377;45.186;9.778;2023-10-19T11:34:29;26.02;;;23.63;;
51292;SDS011;37377;45.186;9.778;2023-10-19T11:36:57;25.92;;;23.63;;
51292;SDS011;37377;45.186;9.778;2023-10-19T11:39:28;25.10;;;22.70;;
51292;SDS011;37377;45.186;9.778;2023-10-19T11:41:55;25.27;;;23.05;;
51292;SDS011;37377;45.186;9.778;2023-10-19T11:44:22;31.25;;;23.33;;
51292;SDS011;37377;45.186;9.778;2023-10-19T11:46:49;26.33;;;23.80;;
51292;SDS011;37377;45.186;9.778;2023-10-19T11:49:17;25.67;;;23.48;;
51292;SDS011;37377;45.186;9.778;2023-10-19T11:51:45;26.55;;;24.10;;
51292;SDS011;37377;45.186;9.778;2023-10-19T11:54:13;24.27;;;22.13;;
51292;SDS011;37377;45.186;9.778;2023-10-19T11:56:40;26.23;;;23.77;;
51292;SDS011;37377;45.186;9.778;2023-10-19T11:59:07;25.73;;;23.33;;
51292;SDS011;37377;45.186;9.778;2023-10-19T12:01:35;24.67;;;22.27;;
51292;SDS011;37377;45.186;9.778;2023-10-19T12:04:03;23.70;;;21.60;;
51292;SDS011;37377;45.186;9.778;2023-10-19T12:06:32;23.85;;;21.40;;
51292;SDS011;37377;45.186;9.778;2023-10-19T12:08:59;24.27;;;21.73;;
51292;SDS011;37377;45.186;9.778;2023-10-19T12:11:32;24.73;;;21.02;;
51292;SDS011;37377;45.186;9.778;2023-10-19T12:14:00;23.38;;;21.15;;
51292;SDS011;37377;45.186;9.778;2023-10-19T12:16:30;22.38;;;20.27;;
51292;SDS011;37377;45.186;9.778;2023-10-19T12:18:59;20.98;;;18.98;;
51292;SDS011;37377;45.186;9.778;2023-10-19T12:21:26;22.52;;;20.45;;
51292;SDS011;37377;45.186;9.778;2023-10-19T12:23:54;20.67;;;18.95;;
51292;SDS011;37377;45.186;9.778;2023-10-19T12:26:23;21.08;;;18.88;;
51292;SDS011;37377;45.186;9.778;2023-10-19T12:28:51;21.95;;;19.77;;
51292;SDS011;37377;45.186;9.778;2023-10-19T12:31:18;20.50;;;18.73;;
51292;SDS011;37377;45.186;9.778;2023-10-19T12:33:46;21.08;;;19.40;;
51292;SDS011;37377;45.186;9.778;2023-10-19T12:36:13;24.33;;;21.92;;
51292;SDS011;37377;45.186;9.778;2023-10-19T12:38:58;23.55;;;21.40;;
51292;SDS011;37377;45.186;9.778;2023-10-19T12:41:27;23.45;;;21.45;;
51292;SDS011;37377;45.186;9.778;2023-10-19T12:43:58;26.67;;;24.17;;
51292;SDS011;37377;45.186;9.778;2023-10-19T12:46:29;24.80;;;22.50;;
51292;SDS011;37377;45.186;9.778;2023-10-19T12:48:57;22.90;;;20.75;;
51292;SDS011;37377;45.186;9.778;2023-10-19T12:51:25;22.85;;;20.85;;
51292;SDS011;37377;45.186;9.778;2023-10-19T12:53:54;24.63;;;22.30;;
51292;SDS011;37377;45.186;9.778;2023-10-19T12:56:21;24.88;;;22.27;;
51292;SDS011;37377;45.186;9.778;2023-10-19T12:58:51;26.00;;;23.23;;
51292;SDS011;37377;45.186;9.778;2023-10-19T13:01:18;26.30;;;23.48;;
51292;SDS011;37377;45.186;9.778;2023-10-19T13:03:46;27.38;;;24.48;;
51292;SDS011;37377;45.186;9.778;2023-10-19T13:06:16;25.17;;;22.70;;
51292;SDS011;37377;45.186;9.778;2023-10-19T13:08:43;23.90;;;21.58;;
51292;SDS011;37377;45.186;9.778;2023-10-19T13:11:11;26.90;;;24.27;;
51292;SDS011;37377;45.186;9.778;2023-10-19T13:13:45;23.45;;;21.02;;
51292;SDS011;37377;45.186;9.778;2023-10-19T13:16:14;23.17;;;20.85;;
51292;SDS011;37377;45.186;9.778;2023-10-19T13:18:43;25.85;;;23.20;;
51292;SDS011;37377;45.186;9.778;2023-10-19T13:21:11;24.27;;;21.70;;
51292;SDS011;37377;45.186;9.778;2023-10-19T13:23:43;23.08;;;20.98;;
51292;SDS011;37377;45.186;9.778;2023-10-19T13:26:11;21.35;;;19.50;;
51292;SDS011;37377;45.186;9.778;2023-10-19T13:28:42;22.27;;;20.10;;
51292;SDS011;37377;45.186;9.778;2023-10-19T13:31:10;23.08;;;20.83;;
51292;SDS011;37377;45.186;9.778;2023-10-19T13:33:40;21.52;;;19.30;;
51292;SDS011;37377;45.186;9.778;2023-10-19T13:36:12;21.60;;;19.52;;
51292;SDS011;37377;45.186;9.778;2023-10-19T13:38:43;23.02;;;20.88;;
51292;SDS011;37377;45.186;9.778;2023-10-19T13:41:10;21.40;;;19.25;;
51292;SDS011;37377;45.186;9.778;2023-10-19T13:43:41;21.00;;;19.20;;
51292;SDS011;37377;45.186;9.778;2023-10-19T13:46:18;27.05;;;24.42;;
51292;SDS011;37377;45.186;9.778;2023-10-19T13:48:45;43.40;;;35.90;;
51292;SDS011;37377;45.186;9.778;2023-10-19T13:51:15;23.23;;;20.95;;
51292;SDS011;37377;45.186;9.778;2023-10-19T13:53:46;25.05;;;21.48;;
51292;SDS011;37377;45.186;9.778;2023-10-19T13:56:13;21.48;;;19.48;;
51292;SDS011;37377;45.186;9.778;2023-10-19T13:58:43;24.08;;;20.85;;
51292;SDS011;37377;45.186;9.778;2023-10-19T14:01:14;25.75;;;23.33;;
51292;SDS011;37377;45.186;9.778;2023-10-19T14:03:43;24.15;;;22.00;;
51292;SDS011;37377;45.186;9.778;2023-10-19T14:06:12;25.83;;;23.10;;
51292;SDS011;37377;45.186;9.778;2023-10-19T14:08:43;22.83;;;20.83;;
51292;SDS011;37377;45.186;9.778;2023-10-19T14:11:13;23.98;;;21.55;;
51292;SDS011;37377;45.186;9.778;2023-10-19T14:13:41;23.30;;;20.92;;
51292;SDS011;37377;45.186;9.778;2023-10-19T14:16:09;23.48;;;20.98;;
51292;SDS011;37377;45.186;9.778;2023-10-19T14:18:37;24.08;;;21.98;;
51292;SDS011;37377;45.186;9.778;2023-10-19T14:21:14;26.17;;;23.60;;
51292;SDS011;37377;45.186;9.778;2023-10-19T14:23:42;27.40;;;24.50;;
51292;SDS011;37377;45.186;9.778;2023-10-19T14:26:11;29.88;;;26.90;;
51292;SDS011;37377;45.186;9.778;2023-10-19T14:28:38;30.38;;;27.45;;
51292;SDS011;37377;45.186;9.778;2023-10-19T14:31:07;33.00;;;29.08;;
51292;SDS011;37377;45.186;9.778;2023-10-19T14:33:35;36.40;;;29.65;;
51292;SDS011;37377;45.186;9.778;2023-10-19T14:36:03;33.03;;;29.05;;
51292;SDS011;37377;45.186;9.778;2023-10-19T14:38:31;33.40;;;29.88;;
51292;SDS011;37377;45.186;9.778;2023-10-19T14:40:58;31.73;;;28.50;;
51292;SDS011;37377;45.186;9.778;2023-10-19T14:43:27;30.25;;;26.70;;
51292;SDS011;37377;45.186;9.778;2023-10-19T14:45:56;28.63;;;25.73;;
51292;SDS011;37377;45.186;9.778;2023-10-19T14:48:32;33.87;;;30.41;;
51292;SDS011;37377;45.186;9.778;2023-10-19T14:51:02;26.50;;;23.55;;
51292;SDS011;37377;45.186;9.778;2023-10-19T14:53:29;24.10;;;21.65;;